首页
METAR-TAF:

METAR-TAF

机场 :

博兹曼机场

博兹曼, 蒙大拿州, 美国

纬度: 45-47-17N, 经度: 111-09-39W, 海拔: 1364米

当前天气观测

该预报发布于1小时和3分钟前的01:56 UTC
风速7节,风向东南
温度 -7°C
湿度 62%
气压 1029 hPa
能見度: 16.1公里
天空无云

METAR: KBZN 260156Z 13007KT 10SM CLR M07/M13 A3039 RMK AO2 SLP351 T10671128

时间: 19:59 (02:59 UTC)

预报

该预报发布于3小时和39分钟前的23:20 UTC
预报有效从26日的 00点(UTC)到 27日的 06点(UTC)
风速3节,风向多变
能見度: 10公里
散云层高于4500英尺
多云层高于6000英尺
从 26日的 1600点(UTC)
风速3节,风向多变
能見度: 10公里
散云层高于3000英尺
多云层高于4500英尺
从 27日的 0200点(UTC)
风速4节,风向多变
能見度: 10公里
散云层高于2000英尺
阴天层高于3000英尺

TAF: KBZN 252320Z 2600/2706 VRB03KT P6SM SCT045 BKN060 FM261600 VRB03KT P6SM SCT030 BKN045 FM270200 VRB04KT P6SM SCT020 OVC030

超过4000个机场的气象观测和天气预报(METAR&TAF报告)。

可查询的气象台以黄色和红色小点在地图上表示。

将鼠标移到小点上方,可查看气象台名称。

然后点击查看天气观测和预报。

如需切换地图:点击带黑十字的绿色按钮放大地图;点击带横线的绿色按钮缩小地图;或者点击绿色箭头查看邻近地区的地图。


METAR-TAF: